EGAA/BFS METAR and TAF weather

Enter ICAO airport designator
Station Type Date Time Source
EGAA METAR 2018/07/19 06:50 UTC NOAA

EGAA 190650Z VRB02KT 9999 FEW020 14/11 Q1020


Station Type Date Time Source
EGAA Decoded METAR 2018/07/19 06:50 UTC NOAA

Belfast / Aldergrove Airport, United Kingdom (EGAA) 54-39N 006-13W 0M
Jul 19, 2018 - 02:50 AM EDT / 2018.07.19 0650 UTC
Wind: Variable at 2 MPH (2 KT):0
Visibility: greater than 7 mile(s):0
Sky conditions: mostly clear
Temperature: 57 F (14 C)
Dew Point: 51 F (11 C)
Relative Humidity: 82%
Pressure (altimeter): 30.12 in. Hg (1020 hPa)
ob: EGAA 190650Z VRB02KT 9999 FEW020 14/11 Q1020
cycle: 7

Station Type Date Time Source
EGAA TAF 2018/07/19 06:16 UTC NOAA

TAF EGAA 190455Z 1906/2006 33004KT 9999 SCT040
BECMG 1915/1918 24010KT
BECMG 1921/1924 7000 RA BKN010
TEMPO 1923/2006 3000 RADZ BKN007 PROB30
TEMPO 2000/2006 BKN004


Example: see airport list